Time;durP1;ratioP1;P1;durP2;ratioP2;P2;SDS_P1;SDS_P2;PMS_P1;PMS_P2;Temp;Humidity;BMP_temperature;BMP_pressure;BME280_temperature;BME280_humidity;BME280_pressure;Samples;Min_cycle;Max_cycle;Signal;HPM_P1;HPM_P2
2021/12/20 00:00:50;;;;;;;29.40;5.20;;;6.30;99.90;;;;;;5106389;28;20044;-66
2021/12/20 00:03:16;;;;;;;23.48;4.35;;;6.30;99.90;;;;;;5112366;28;20039;-66
2021/12/20 00:05:42;;;;;;;26.20;4.10;;;6.20;99.90;;;;;;5106971;28;20443;-66
2021/12/20 00:08:08;;;;;;;27.73;4.75;;;6.20;99.90;;;;;;5105783;28;20530;-66
2021/12/20 00:10:34;;;;;;;24.58;4.93;;;6.20;99.90;;;;;;5108196;28;20101;-66
2021/12/20 00:13:00;;;;;;;25.20;4.68;;;6.10;99.90;;;;;;5110328;28;20123;-66
2021/12/20 00:15:25;;;;;;;23.60;3.97;;;6.10;99.90;;;;;;5101474;28;20076;-66
2021/12/20 00:17:51;;;;;;;33.55;5.30;;;6.00;99.90;;;;;;5109889;28;20028;-66
2021/12/20 00:20:17;;;;;;;17.05;3.85;;;5.90;99.90;;;;;;5107656;28;20051;-66
2021/12/20 00:22:43;;;;;;;32.10;5.22;;;5.90;99.90;;;;;;5106125;28;20059;-66
2021/12/20 00:25:10;;;;;;;26.48;4.40;;;5.80;99.90;;;;;;5104452;28;20040;-66
2021/12/20 00:27:36;;;;;;;26.27;5.82;;;5.80;99.90;;;;;;5106956;28;20047;-66
2021/12/20 00:30:04;;;;;;;29.40;4.45;;;5.80;99.90;;;;;;5106232;28;20062;-66
2021/12/20 00:32:30;;;;;;;24.38;3.92;;;5.70;99.90;;;;;;5106876;28;20047;-66
2021/12/20 00:34:55;;;;;;;16.38;3.55;;;5.60;99.90;;;;;;5106435;28;20065;-66
2021/12/20 00:40:22;;;;;;;24.23;4.85;;;5.40;99.90;;;;;;5126978;27;20407;-66
2021/12/20 00:42:53;;;;;;;27.55;4.22;;;5.40;99.90;;;;;;5128283;27;20117;-67
2021/12/20 00:45:21;;;;;;;20.55;3.80;;;5.40;99.90;;;;;;5127505;27;20032;-66
2021/12/20 00:47:47;;;;;;;22.70;3.47;;;5.40;99.90;;;;;;5112580;27;20050;-66
2021/12/20 00:50:15;;;;;;;29.00;5.57;;;5.50;99.90;;;;;;5127990;27;20055;-66
2021/12/20 00:52:42;;;;;;;23.42;4.68;;;5.50;99.90;;;;;;5128633;27;20048;-66
2021/12/20 00:55:08;;;;;;;24.38;3.58;;;5.40;99.90;;;;;;5127047;27;20091;-66
2021/12/20 00:57:35;;;;;;;22.10;4.32;;;5.30;99.90;;;;;;5126626;27;20043;-66
2021/12/20 01:00:01;;;;;;;21.70;4.18;;;5.30;99.90;;;;;;5108842;27;20087;-66
2021/12/20 01:02:27;;;;;;;25.15;5.05;;;5.20;99.90;;;;;;5130921;27;20039;-66
2021/12/20 01:04:52;;;;;;;25.05;5.00;;;5.40;99.90;;;;;;5130516;27;20054;-66
2021/12/20 01:07:18;;;;;;;28.05;4.03;;;5.40;99.90;;;;;;5128855;27;20068;-66
2021/12/20 01:09:44;;;;;;;20.35;3.22;;;5.40;99.90;;;;;;5127882;27;20043;-66
2021/12/20 01:12:16;;;;;;;20.98;5.22;;;5.40;99.90;;;;;;5132278;27;20043;-66
2021/12/20 01:14:43;;;;;;;15.40;3.55;;;5.30;99.90;;;;;;5107330;28;20047;-66
2021/12/20 01:17:09;;;;;;;20.80;3.38;;;5.20;99.90;;;;;;5129040;27;20087;-66
2021/12/20 01:19:36;;;;;;;19.80;3.90;;;5.00;99.90;;;;;;5126827;28;20039;-66
2021/12/20 01:22:03;;;;;;;17.70;3.33;;;4.90;99.90;;;;;;5131325;27;20106;-66
2021/12/20 01:24:28;;;;;;;9.93;2.42;;;4.70;99.90;;;;;;5107712;28;20047;-66
2021/12/20 01:26:54;;;;;;;22.20;3.50;;;4.60;99.90;;;;;;5124915;28;20052;-66
2021/12/20 01:29:21;;;;;;;24.25;3.72;;;4.50;99.90;;;;;;5125837;28;20039;-66
2021/12/20 01:31:47;;;;;;;21.42;3.35;;;4.40;99.90;;;;;;5129059;28;20043;-66
2021/12/20 01:34:12;;;;;;;20.75;2.90;;;4.30;99.90;;;;;;5113623;28;20111;-66
2021/12/20 01:36:38;;;;;;;18.83;3.05;;;4.20;99.90;;;;;;5129327;28;20130;-66
2021/12/20 01:39:04;;;;;;;23.33;3.78;;;4.20;99.90;;;;;;5126835;28;20040;-66
2021/12/20 01:41:30;;;;;;;16.50;2.80;;;4.00;99.90;;;;;;5125345;28;20039;-66
2021/12/20 01:43:56;;;;;;;22.60;3.75;;;4.10;99.90;;;;;;5107274;28;20048;-66
2021/12/20 01:46:23;;;;;;;17.73;2.50;;;4.10;99.90;;;;;;5132000;28;20105;-66
2021/12/20 01:48:49;;;;;;;19.50;2.85;;;4.10;99.90;;;;;;5125092;28;20047;-66
2021/12/20 01:51:48;;;;;;;18.60;3.40;;;4.10;99.90;;;;;;5125720;28;20074;-66
2021/12/20 01:54:15;;;;;;;21.20;3.60;;;4.00;99.90;;;;;;5119816;28;20036;-66
2021/12/20 01:56:43;;;;;;;18.13;3.33;;;3.90;99.90;;;;;;5120660;28;20040;-66
2021/12/20 01:59:10;;;;;;;11.68;2.33;;;3.90;99.90;;;;;;5126353;28;20097;-66
2021/12/20 02:01:36;;;;;;;21.73;2.97;;;3.80;99.90;;;;;;5122569;28;20035;-66
2021/12/20 02:04:07;;;;;;;18.63;2.70;;;3.80;99.90;;;;;;5124702;28;20595;-66
2021/12/20 02:06:38;;;;;;;30.08;3.85;;;3.70;99.90;;;;;;5125269;28;20059;-66
2021/12/20 02:09:08;;;;;;;23.75;3.33;;;3.80;99.90;;;;;;5123753;28;20055;-66
2021/12/20 02:11:34;;;;;;;27.75;4.03;;;4.00;99.90;;;;;;5126159;28;20039;-66
2021/12/20 02:14:00;;;;;;;26.45;3.90;;;4.20;99.90;;;;;;5124485;28;20046;-66
2021/12/20 02:16:26;;;;;;;15.00;3.25;;;4.30;99.90;;;;;;5126696;28;20039;-66
2021/12/20 02:18:52;;;;;;;15.18;2.63;;;4.20;99.90;;;;;;5108140;28;20056;-66
2021/12/20 02:21:18;;;;;;;14.65;2.60;;;4.00;99.90;;;;;;5124734;28;20048;-66
2021/12/20 02:23:45;;;;;;;11.32;2.83;;;3.80;99.90;;;;;;5131966;27;20058;-66
2021/12/20 02:26:17;;;;;;;20.20;3.38;;;3.80;99.90;;;;;;5130071;27;20040;-66
2021/12/20 02:28:46;;;;;;;17.65;3.80;;;3.90;99.90;;;;;;5128310;27;20066;-66
2021/12/20 02:39:15;;;;;;;21.40;2.90;;;4.00;99.90;;;;;;5130554;27;20051;-66
2021/12/20 02:41:42;;;;;;;13.52;2.17;;;3.80;99.90;;;;;;5129784;27;20055;-66
2021/12/20 02:44:16;;;;;;;18.80;3.10;;;3.80;99.90;;;;;;5113837;28;20043;-66
2021/12/20 02:49:10;;;;;;;17.77;3.35;;;3.50;99.90;;;;;;5129299;27;20035;-66
2021/12/20 02:51:37;;;;;;;13.98;2.40;;;3.60;99.90;;;;;;5113231;28;20060;-66
2021/12/20 02:54:06;;;;;;;11.63;2.55;;;3.50;99.90;;;;;;5131737;27;20051;-66
2021/12/20 02:56:32;;;;;;;14.13;3.05;;;3.40;99.90;;;;;;5133333;27;20454;-66
2021/12/20 02:58:58;;;;;;;14.20;2.65;;;3.10;99.90;;;;;;5129790;27;20054;-66
2021/12/20 03:01:24;;;;;;;15.50;2.38;;;3.00;99.90;;;;;;5129235;27;20035;-66
2021/12/20 03:03:52;;;;;;;13.13;3.20;;;3.00;99.90;;;;;;5111581;28;20126;-66
2021/12/20 03:06:36;;;;;;;14.00;2.58;;;3.10;99.90;;;;;;5132975;27;20046;-66
2021/12/20 03:09:03;;;;;;;15.98;3.35;;;3.10;99.90;;;;;;5113436;28;20054;-66
2021/12/20 03:11:29;;;;;;;11.27;2.95;;;3.10;99.90;;;;;;5113358;27;20047;-66
2021/12/20 03:14:07;;;;;;;19.13;2.95;;;3.10;99.90;;;;;;5124880;27;20043;-66
2021/12/20 03:16:34;;;;;;;25.30;3.30;;;3.10;99.90;;;;;;5113257;28;20673;-66
2021/12/20 03:19:01;;;;;;;14.52;2.85;;;3.20;99.90;;;;;;5111401;27;20051;-66
2021/12/20 03:21:27;;;;;;;16.77;2.55;;;3.10;99.90;;;;;;5111844;27;20131;-66
2021/12/20 03:23:52;;;;;;;16.90;3.03;;;3.00;99.90;;;;;;5128500;27;20043;-66
2021/12/20 03:26:18;;;;;;;22.42;2.95;;;2.80;99.90;;;;;;5113776;28;20077;-66
2021/12/20 03:28:44;;;;;;;16.70;3.08;;;2.80;99.90;;;;;;5126786;27;20044;-66
2021/12/20 03:31:09;;;;;;;19.83;3.55;;;2.90;99.90;;;;;;5130044;27;20047;-66
2021/12/20 03:33:35;;;;;;;15.38;2.90;;;2.90;99.90;;;;;;5128976;27;20118;-66
2021/12/20 03:36:02;;;;;;;16.05;2.90;;;2.80;99.90;;;;;;5110963;28;20060;-66
2021/12/20 03:38:28;;;;;;;17.58;3.00;;;2.90;99.90;;;;;;5114691;27;20055;-66
2021/12/20 03:40:53;;;;;;;21.05;3.25;;;2.80;99.90;;;;;;5109557;28;20046;-66
2021/12/20 03:43:19;;;;;;;19.20;3.00;;;2.80;99.90;;;;;;5110729;28;20051;-66
2021/12/20 03:45:49;;;;;;;19.50;3.58;;;2.70;99.90;;;;;;5111287;27;20043;-66
2021/12/20 03:48:15;;;;;;;14.45;3.45;;;2.80;99.90;;;;;;5128609;27;20039;-66
2021/12/20 03:50:41;;;;;;;19.23;2.90;;;2.70;99.90;;;;;;5131944;27;20039;-66
2021/12/20 03:53:07;;;;;;;13.00;2.65;;;2.60;99.90;;;;;;5110898;28;20099;-66
2021/12/20 03:55:33;;;;;;;19.00;3.65;;;2.60;99.90;;;;;;5111076;27;20051;-66
2021/12/20 03:57:58;;;;;;;14.02;3.10;;;2.70;99.90;;;;;;5125781;28;20122;-66
2021/12/20 04:00:24;;;;;;;16.23;3.30;;;2.70;99.90;;;;;;5111325;28;20040;-66
2021/12/20 04:02:51;;;;;;;11.25;3.10;;;2.60;99.90;;;;;;5111265;27;20089;-66
2021/12/20 04:05:17;;;;;;;9.00;1.80;;;2.50;99.90;;;;;;5113046;27;20047;-66
2021/12/20 04:07:43;;;;;;;10.77;1.88;;;2.50;99.90;;;;;;5108795;27;20506;-66
2021/12/20 04:10:09;;;;;;;10.18;2.20;;;2.40;99.90;;;;;;5111067;28;20136;-66
2021/12/20 04:12:35;;;;;;;9.63;2.20;;;2.30;99.90;;;;;;5129158;27;20039;-66
2021/12/20 04:15:01;;;;;;;9.48;1.90;;;2.20;99.90;;;;;;5109114;27;20100;-66
2021/12/20 04:17:26;;;;;;;12.38;2.38;;;2.10;99.90;;;;;;5109275;28;20103;-66
2021/12/20 04:19:52;;;;;;;10.32;2.58;;;2.00;99.90;;;;;;5112488;28;20054;-66
2021/12/20 04:22:20;;;;;;;10.27;2.20;;;1.90;99.90;;;;;;5109398;28;20076;-66
2021/12/20 04:24:46;;;;;;;8.50;1.80;;;1.90;99.90;;;;;;5111718;28;20043;-66
2021/12/20 04:27:12;;;;;;;11.57;2.53;;;2.00;99.90;;;;;;5130878;27;20046;-66
2021/12/20 04:29:38;;;;;;;12.52;2.35;;;2.00;99.90;;;;;;5130855;27;20050;-66
2021/12/20 04:32:04;;;;;;;6.45;1.30;;;1.90;99.90;;;;;;5110022;28;20048;-66
2021/12/20 04:34:30;;;;;;;17.33;2.53;;;1.80;99.90;;;;;;5097078;28;20046;-66
2021/12/20 04:36:56;;;;;;;9.85;2.15;;;1.60;99.90;;;;;;5106654;28;20081;-66
2021/12/20 04:39:26;;;;;;;11.45;2.65;;;1.60;99.90;;;;;;5109439;28;20081;-66
2021/12/20 04:41:52;;;;;;;10.40;2.08;;;1.60;99.90;;;;;;5093399;28;20051;-66
2021/12/20 04:44:18;;;;;;;16.00;2.53;;;1.50;99.90;;;;;;5107838;27;20036;-66
2021/12/20 04:46:44;;;;;;;12.20;2.70;;;1.50;99.90;;;;;;5094554;28;20047;-65
2021/12/20 04:49:09;;;;;;;12.02;1.88;;;1.50;99.90;;;;;;5095782;27;20078;-66
2021/12/20 04:51:35;;;;;;;13.30;2.35;;;1.50;99.90;;;;;;5107819;28;20071;-66
2021/12/20 04:54:01;;;;;;;19.17;3.15;;;1.50;99.90;;;;;;5128519;27;20063;-65
2021/12/20 04:56:27;;;;;;;18.40;2.65;;;1.70;99.90;;;;;;5111173;28;20040;-65
2021/12/20 04:58:53;;;;;;;14.73;2.88;;;1.70;99.90;;;;;;5125333;28;20405;-65
2021/12/20 05:01:19;;;;;;;13.07;3.33;;;1.80;99.90;;;;;;5127746;27;20080;-66
2021/12/20 05:03:44;;;;;;;12.38;3.30;;;1.80;99.90;;;;;;5120071;28;20035;-66
2021/12/20 05:06:10;;;;;;;14.35;2.40;;;1.70;99.90;;;;;;5111917;27;20069;-66
2021/12/20 05:08:46;;;;;;;16.20;2.42;;;1.70;99.90;;;;;;5110596;28;20050;-66
2021/12/20 05:11:11;;;;;;;12.07;2.80;;;1.70;99.90;;;;;;5097050;28;20093;-66
2021/12/20 05:13:37;;;;;;;11.95;2.10;;;1.70;99.90;;;;;;5099299;28;20039;-66
2021/12/20 05:16:03;;;;;;;18.77;2.40;;;1.80;99.90;;;;;;5125007;27;20043;-66
2021/12/20 05:18:29;;;;;;;11.88;2.53;;;1.70;99.90;;;;;;5127393;27;20062;-66
2021/12/20 05:20:55;;;;;;;8.20;1.60;;;1.80;99.90;;;;;;5109475;28;20039;-66
2021/12/20 05:23:21;;;;;;;11.07;2.20;;;1.70;99.90;;;;;;5126208;27;20065;-66
2021/12/20 05:25:46;;;;;;;23.92;4.95;;;1.70;99.90;;;;;;5109223;28;20126;-66
2021/12/20 05:28:12;;;;;;;12.35;2.28;;;1.70;99.90;;;;;;5107359;28;20103;-66
2021/12/20 05:30:38;;;;;;;9.77;2.30;;;1.70;99.90;;;;;;5090778;28;20044;-66
2021/12/20 05:33:05;;;;;;;9.35;2.13;;;1.60;99.90;;;;;;5110455;28;20048;-66
2021/12/20 05:35:31;;;;;;;9.73;2.45;;;1.60;99.90;;;;;;5095043;28;20039;-66
2021/12/20 05:37:58;;;;;;;10.70;2.22;;;1.40;99.90;;;;;;5108353;28;20039;-66
2021/12/20 05:40:25;;;;;;;14.02;2.55;;;1.40;99.90;;;;;;5112007;28;20479;-66
2021/12/20 05:42:51;;;;;;;14.10;2.42;;;1.40;99.90;;;;;;5128246;28;20064;-65
2021/12/20 05:45:20;;;;;;;16.15;3.13;;;1.40;99.90;;;;;;5112080;28;20039;-66
2021/12/20 05:47:46;;;;;;;14.52;2.92;;;1.40;99.90;;;;;;5124605;28;20039;-66
2021/12/20 05:50:15;;;;;;;10.63;2.40;;;1.30;99.90;;;;;;5110818;28;20040;-66
2021/12/20 05:52:41;;;;;;;13.85;2.45;;;1.30;99.90;;;;;;5105539;28;20044;-66
2021/12/20 05:55:08;;;;;;;16.25;3.33;;;1.40;99.90;;;;;;5107152;28;20126;-66
2021/12/20 05:57:34;;;;;;;14.50;2.55;;;1.40;99.90;;;;;;5113033;28;20043;-66
2021/12/20 06:00:03;;;;;;;11.90;2.33;;;1.40;99.90;;;;;;5111764;27;20491;-66
2021/12/20 06:02:29;;;;;;;13.77;3.15;;;1.40;99.90;;;;;;5108205;28;20043;-66
2021/12/20 06:04:54;;;;;;;15.63;2.42;;;1.30;99.90;;;;;;5132662;27;20043;-65
2021/12/20 06:07:21;;;;;;;14.73;2.72;;;1.40;99.90;;;;;;5109179;27;20433;-66
2021/12/20 06:09:47;;;;;;;9.60;2.63;;;1.30;99.90;;;;;;5092303;27;20057;-65
2021/12/20 06:12:14;;;;;;;14.70;2.38;;;1.30;99.90;;;;;;5109972;28;20051;-67
2021/12/20 06:14:40;;;;;;;11.77;2.78;;;1.10;99.90;;;;;;5086117;28;20110;-66
2021/12/20 06:17:06;;;;;;;16.83;3.17;;;1.20;99.90;;;;;;5097666;28;20036;-64
2021/12/20 06:19:33;;;;;;;10.93;2.55;;;1.00;99.90;;;;;;5114166;27;20131;-64
2021/12/20 06:21:59;;;;;;;12.90;2.85;;;1.00;99.90;;;;;;5078647;28;20252;-65
2021/12/20 06:24:25;;;;;;;11.82;2.58;;;0.90;99.90;;;;;;5099349;28;20059;-64
2021/12/20 06:26:50;;;;;;;17.23;2.58;;;0.80;99.90;;;;;;5109611;27;20055;-65
2021/12/20 06:29:17;;;;;;;13.68;1.98;;;0.80;99.90;;;;;;5130528;27;20534;-65
2021/12/20 06:31:43;;;;;;;16.70;3.38;;;0.80;99.90;;;;;;5104284;27;20124;-65
2021/12/20 06:34:09;;;;;;;19.50;2.90;;;0.90;99.90;;;;;;5105454;27;20035;-64
2021/12/20 06:36:35;;;;;;;21.25;3.15;;;0.90;99.90;;;;;;5116134;27;20043;-65
2021/12/20 06:39:01;;;;;;;16.77;2.60;;;0.90;99.90;;;;;;5090553;27;20119;-66
2021/12/20 06:41:27;;;;;;;15.88;2.85;;;0.90;99.90;;;;;;5108652;27;20051;-66
2021/12/20 06:43:53;;;;;;;18.13;2.60;;;0.90;99.90;;;;;;5111244;27;20499;-66
2021/12/20 06:46:20;;;;;;;19.40;3.03;;;0.90;99.90;;;;;;5112029;27;20130;-66
2021/12/20 06:48:45;;;;;;;21.23;3.65;;;0.90;99.90;;;;;;5118118;27;20052;-67
2021/12/20 06:51:11;;;;;;;14.27;3.05;;;0.90;99.90;;;;;;5112642;27;20057;-70
2021/12/20 06:53:37;;;;;;;18.27;2.80;;;0.80;99.90;;;;;;5085231;28;20040;-65
2021/12/20 06:56:03;;;;;;;11.02;2.60;;;0.60;99.90;;;;;;5107980;27;20381;-65
2021/12/20 06:58:29;;;;;;;14.07;3.10;;;0.60;99.90;;;;;;5087358;28;20051;-65
2021/12/20 07:00:54;;;;;;;16.08;3.13;;;0.60;99.90;;;;;;5105944;27;20411;-65
2021/12/20 07:03:21;;;;;;;14.10;3.03;;;0.60;99.90;;;;;;5083575;28;20047;-65
2021/12/20 07:05:46;;;;;;;12.45;2.17;;;0.50;99.90;;;;;;5102053;27;20458;-65
2021/12/20 07:08:13;;;;;;;14.95;3.08;;;0.30;99.90;;;;;;5061752;28;20048;-65
2021/12/20 07:10:39;;;;;;;8.98;2.30;;;0.40;99.90;;;;;;5105907;27;20054;-65
2021/12/20 07:13:05;;;;;;;16.08;2.67;;;0.40;99.90;;;;;;5100201;27;20063;-66
2021/12/20 07:15:31;;;;;;;19.05;4.75;;;0.60;99.90;;;;;;5105767;28;20642;-65
2021/12/20 07:17:58;;;;;;;12.57;3.65;;;0.70;99.90;;;;;;5089315;28;20070;-65
2021/12/20 07:20:24;;;;;;;12.35;2.95;;;0.60;99.90;;;;;;5100681;28;20046;-65
2021/12/20 07:22:50;;;;;;;15.98;3.13;;;0.40;99.90;;;;;;5075412;28;20044;-65
2021/12/20 07:25:15;;;;;;;9.43;2.78;;;0.40;99.90;;;;;;5117549;27;20040;-66
2021/12/20 07:27:41;;;;;;;13.15;2.60;;;0.50;99.90;;;;;;5078175;28;20068;-65
2021/12/20 07:30:08;;;;;;;11.93;2.70;;;0.30;99.90;;;;;;5101405;28;20043;-65
2021/12/20 07:32:34;;;;;;;17.73;3.60;;;0.30;99.90;;;;;;5091341;28;20048;-65
2021/12/20 07:34:59;;;;;;;13.02;2.92;;;0.30;99.90;;;;;;5121398;27;20050;-65
2021/12/20 07:37:27;;;;;;;16.80;3.15;;;0.40;99.90;;;;;;5095992;28;20051;-65
2021/12/20 07:39:53;;;;;;;12.98;2.88;;;0.40;99.90;;;;;;5078602;27;20046;-65
2021/12/20 07:42:19;;;;;;;19.45;3.00;;;0.30;99.90;;;;;;5096087;27;20487;-66
2021/12/20 07:44:45;;;;;;;56.95;4.50;;;0.20;99.90;;;;;;5110804;27;20051;-65
2021/12/20 07:47:10;;;;;;;19.27;3.42;;;0.30;99.90;;;;;;5094790;28;20066;-66
2021/12/20 07:49:37;;;;;;;9.45;2.72;;;0.30;99.90;;;;;;5085325;28;20079;-65
2021/12/20 07:52:04;;;;;;;12.07;2.58;;;0.20;99.90;;;;;;5100807;28;20625;-65
2021/12/20 07:54:30;;;;;;;15.13;3.78;;;0.30;99.90;;;;;;5106501;28;20182;-65
2021/12/20 07:56:56;;;;;;;18.02;3.53;;;0.30;99.90;;;;;;5119743;27;20063;-65
2021/12/20 07:59:22;;;;;;;25.95;4.75;;;0.20;99.90;;;;;;5091192;27;20059;-65
2021/12/20 08:01:48;;;;;;;16.80;2.10;;;0.20;99.90;;;;;;5106254;27;20043;-65
2021/12/20 08:04:15;;;;;;;10.00;2.40;;;0.20;99.90;;;;;;5109014;28;20055;-64
2021/12/20 08:06:42;;;;;;;15.88;3.83;;;0.30;99.90;;;;;;5118272;27;20725;-64
2021/12/20 08:09:09;;;;;;;24.38;3.97;;;0.20;99.90;;;;;;5057399;28;20172;-64
2021/12/20 08:11:35;;;;;;;16.60;4.13;;;0.10;99.90;;;;;;5101095;27;20079;-64
2021/12/20 08:14:01;;;;;;;20.70;4.32;;;0.10;99.90;;;;;;5084680;28;20101;-64
2021/12/20 08:16:27;;;;;;;22.70;4.80;;;0.10;99.90;;;;;;5083239;28;20051;-64
2021/12/20 08:18:52;;;;;;;11.30;3.03;;;0.00;99.90;;;;;;5078136;28;20063;-64
2021/12/20 08:21:18;;;;;;;17.60;3.72;;;0.00;99.90;;;;;;5096420;28;20110;-64
2021/12/20 08:23:44;;;;;;;18.67;3.78;;;0.10;99.90;;;;;;5098044;27;20142;-64
2021/12/20 08:26:10;;;;;;;22.63;4.03;;;0.00;99.90;;;;;;5094147;28;20051;-65
2021/12/20 08:28:36;;;;;;;14.93;3.22;;;0.10;99.90;;;;;;5082034;28;20060;-64
2021/12/20 08:31:07;;;;;;;17.27;3.45;;;0.10;99.90;;;;;;5099229;27;20043;-64
2021/12/20 08:33:34;;;;;;;15.23;3.10;;;0.20;99.90;;;;;;5080693;28;20063;-64
2021/12/20 08:36:05;;;;;;;21.80;4.28;;;0.20;99.90;;;;;;5091738;28;20055;-64
2021/12/20 08:38:31;;;;;;;16.08;4.13;;;0.30;99.90;;;;;;5090504;28;20439;-65
2021/12/20 08:40:57;;;;;;;17.15;4.13;;;0.20;99.90;;;;;;5117654;27;20047;-64
2021/12/20 08:43:23;;;;;;;17.73;3.53;;;0.30;99.90;;;;;;5090620;28;20048;-65
2021/12/20 08:45:50;;;;;;;11.88;2.92;;;0.30;99.90;;;;;;5102122;28;20367;-64
2021/12/20 08:48:16;;;;;;;17.25;4.95;;;0.40;99.90;;;;;;5085564;28;20555;-64
2021/12/20 08:50:42;;;;;;;15.85;3.40;;;0.40;99.90;;;;;;5090023;28;20043;-64
2021/12/20 08:53:10;;;;;;;13.90;3.53;;;0.50;99.90;;;;;;5085459;28;20056;-66
2021/12/20 08:55:38;;;;;;;21.70;3.75;;;0.50;99.90;;;;;;5087260;28;20499;-66
2021/12/20 08:58:05;;;;;;;18.90;3.60;;;0.50;99.90;;;;;;5093141;28;20056;-66
2021/12/20 09:00:32;;;;;;;15.48;4.00;;;0.60;99.90;;;;;;5116576;28;20052;-66
2021/12/20 09:03:00;;;;;;;16.80;3.72;;;0.60;99.90;;;;;;5089019;28;20107;-66
2021/12/20 09:05:27;;;;;;;18.10;3.83;;;0.60;99.90;;;;;;5098575;28;20122;-66
2021/12/20 09:07:55;;;;;;;19.77;4.88;;;0.70;99.90;;;;;;5079179;27;20063;-66
2021/12/20 09:10:21;;;;;;;14.40;4.68;;;0.70;99.90;;;;;;5103972;28;20039;-65
2021/12/20 09:12:47;;;;;;;15.38;4.45;;;0.80;99.90;;;;;;5072151;28;20055;-66
2021/12/20 09:15:16;;;;;;;20.35;4.97;;;0.80;99.90;;;;;;5115595;28;20056;-66
2021/12/20 09:17:53;;;;;;;19.50;5.43;;;0.90;99.90;;;;;;5088400;28;20103;-66
2021/12/20 09:20:22;;;;;;;16.42;4.05;;;1.10;99.90;;;;;;5100128;28;20035;-66
2021/12/20 09:22:52;;;;;;;20.42;4.68;;;1.00;99.90;;;;;;5107766;27;20036;-65
2021/12/20 09:25:24;;;;;;;14.68;4.18;;;1.10;99.90;;;;;;5099466;28;20047;-66
2021/12/20 09:27:51;;;;;;;18.38;4.75;;;1.10;99.90;;;;;;5088008;28;20069;-66
2021/12/20 09:30:18;;;;;;;14.02;4.07;;;1.10;99.90;;;;;;5097821;28;20092;-65
2021/12/20 09:32:44;;;;;;;16.23;4.78;;;1.10;99.90;;;;;;5089415;28;20039;-66
2021/12/20 09:35:10;;;;;;;8.68;3.67;;;1.20;99.90;;;;;;5084103;28;20496;-66
2021/12/20 09:37:39;;;;;;;12.93;3.67;;;1.20;99.90;;;;;;5086873;28;20043;-66
2021/12/20 09:40:07;;;;;;;14.10;4.35;;;1.20;99.90;;;;;;5074059;28;20051;-65
2021/12/20 09:42:34;;;;;;;16.75;4.03;;;1.30;99.90;;;;;;5100964;28;20062;-66
2021/12/20 09:45:01;;;;;;;17.70;5.22;;;1.30;99.90;;;;;;5088635;28;20614;-66
2021/12/20 09:47:34;;;;;;;8.85;4.18;;;1.30;99.90;;;;;;5102221;28;20051;-66
2021/12/20 09:50:05;;;;;;;18.98;4.70;;;1.30;99.90;;;;;;5087876;28;20052;-66
2021/12/20 09:52:30;;;;;;;18.52;4.43;;;1.40;99.90;;;;;;5121215;28;20159;-66
2021/12/20 09:54:56;;;;;;;14.43;4.70;;;1.40;99.90;;;;;;5088337;28;20084;-66
2021/12/20 09:57:23;;;;;;;18.80;5.85;;;1.50;99.90;;;;;;5100967;28;20101;-66
2021/12/20 09:59:51;;;;;;;15.43;4.95;;;1.50;99.90;;;;;;5074565;28;20052;-66
2021/12/20 10:02:20;;;;;;;14.85;5.28;;;1.60;99.90;;;;;;5099168;28;20126;-66
2021/12/20 10:04:46;;;;;;;18.40;5.05;;;1.60;99.90;;;;;;5072578;28;20063;-66
2021/12/20 10:07:12;;;;;;;16.30;5.78;;;1.70;99.90;;;;;;5072936;28;20039;-66
2021/12/20 10:09:41;;;;;;;19.20;6.68;;;1.80;99.90;;;;;;5075893;28;20071;-66
2021/12/20 10:12:19;;;;;;;18.70;5.80;;;1.90;99.90;;;;;;5100824;28;20105;-65
2021/12/20 10:14:56;;;;;;;14.40;6.03;;;2.00;99.90;;;;;;5070957;28;20605;-66
2021/12/20 10:17:25;;;;;;;18.45;5.43;;;2.10;99.90;;;;;;5095736;28;20076;-65
2021/12/20 10:19:52;;;;;;;19.35;6.63;;;2.20;99.90;;;;;;5089102;28;20409;-66
2021/12/20 10:22:29;;;;;;;18.13;6.30;;;2.20;99.90;;;;;;5100419;28;20131;-66
2021/12/20 10:24:57;;;;;;;18.05;6.80;;;2.20;99.90;;;;;;5074801;28;20143;-66
2021/12/20 10:27:28;;;;;;;20.83;6.93;;;2.20;99.90;;;;;;5100801;28;20046;-66
2021/12/20 10:29:54;;;;;;;19.85;7.03;;;2.30;99.90;;;;;;5087135;28;20535;-66
2021/12/20 10:32:39;;;;;;;15.40;5.47;;;2.30;99.90;;;;;;5120075;28;20044;-66
2021/12/20 10:35:27;;;;;;;17.00;6.40;;;2.50;99.90;;;;;;5072104;28;20051;-66
2021/12/20 10:37:59;;;;;;;13.75;5.85;;;2.60;99.90;;;;;;5094816;28;20055;-66
2021/12/20 10:40:26;;;;;;;21.23;6.50;;;2.60;99.90;;;;;;5068574;28;20420;-66
2021/12/20 10:42:56;;;;;;;13.48;5.25;;;2.60;99.90;;;;;;5098231;28;20051;-66
2021/12/20 10:45:24;;;;;;;16.38;4.70;;;2.80;99.90;;;;;;5075975;28;20063;-65
2021/12/20 10:47:51;;;;;;;13.52;5.07;;;2.80;99.90;;;;;;5103457;27;20053;-66
2021/12/20 10:50:34;;;;;;;14.50;5.40;;;2.80;99.90;;;;;;5093919;28;20047;-66
2021/12/20 10:53:14;;;;;;;17.83;5.25;;;2.90;99.90;;;;;;5100790;28;20095;-67
2021/12/20 10:55:58;;;;;;;17.17;4.53;;;2.90;99.90;;;;;;5111118;27;20142;-68
2021/12/20 10:58:29;;;;;;;13.18;5.13;;;3.00;99.90;;;;;;5093239;28;20046;-66
2021/12/20 11:01:38;;;;;;;10.32;4.80;;;3.00;99.90;;;;;;5091027;28;20530;-66
2021/12/20 11:04:03;;;;;;;9.98;4.95;;;3.10;99.90;;;;;;5103065;27;20118;-66
2021/12/20 11:09:17;;;;;;;15.20;5.13;;;3.40;99.90;;;;;;5078464;28;20043;-66
2021/12/20 11:11:56;;;;;;;16.15;5.38;;;3.60;99.90;;;;;;5114530;27;20051;-66
2021/12/20 11:14:28;;;;;;;13.35;4.50;;;3.60;99.90;;;;;;5101354;27;20052;-66
2021/12/20 11:16:55;;;;;;;17.00;5.28;;;3.70;99.90;;;;;;5099102;28;20602;-66
2021/12/20 11:19:36;;;;;;;12.98;5.47;;;3.70;99.90;;;;;;5100946;27;20044;-66
2021/12/20 11:22:17;;;;;;;11.77;4.32;;;3.80;99.90;;;;;;5099370;27;20753;-66
2021/12/20 11:24:51;;;;;;;18.33;5.43;;;3.90;99.90;;;;;;5078557;28;20052;-67
2021/12/20 11:27:21;;;;;;;21.30;5.43;;;3.90;99.90;;;;;;5097924;28;20084;-66
2021/12/20 11:29:49;;;;;;;14.85;4.63;;;4.00;99.90;;;;;;5090054;28;20840;-67
2021/12/20 11:32:16;;;;;;;12.50;4.00;;;4.00;99.90;;;;;;5103292;28;20040;-66
2021/12/20 11:34:43;;;;;;;12.48;4.18;;;4.00;99.90;;;;;;5102012;27;20086;-66
2021/12/20 11:37:15;;;;;;;14.88;4.65;;;4.10;99.90;;;;;;5120517;27;20419;-66
2021/12/20 11:39:42;;;;;;;14.50;4.13;;;4.20;99.90;;;;;;5092950;28;20056;-66
2021/12/20 11:42:08;;;;;;;13.40;3.65;;;4.30;99.90;;;;;;5092172;27;20515;-66
2021/12/20 11:44:37;;;;;;;15.23;4.63;;;4.30;99.90;;;;;;5092700;28;20063;-65
2021/12/20 11:47:25;;;;;;;17.88;4.63;;;4.40;99.90;;;;;;5104103;27;20051;-66
2021/12/20 11:50:21;;;;;;;15.07;4.40;;;4.40;99.90;;;;;;5096935;27;20062;-66
2021/12/20 11:52:48;;;;;;;15.75;3.90;;;4.40;99.90;;;;;;5107468;27;20149;-65
2021/12/20 11:55:17;;;;;;;15.60;4.80;;;4.40;99.90;;;;;;5096454;28;20055;-66
2021/12/20 11:57:54;;;;;;;12.73;5.82;;;4.50;99.90;;;;;;5118165;27;20075;-66
2021/12/20 12:00:29;;;;;;;21.45;7.45;;;4.50;99.90;;;;;;5085766;27;20420;-66
2021/12/20 12:02:59;;;;;;;17.92;7.20;;;4.60;99.90;;;;;;5110370;27;20106;-65
2021/12/20 12:05:28;;;;;;;12.55;7.13;;;4.60;99.90;;;;;;5077317;28;20048;-66
2021/12/20 12:07:53;;;;;;;15.43;6.32;;;4.60;99.90;;;;;;5119310;27;20075;-66
2021/12/20 12:10:28;;;;;;;14.70;6.75;;;4.60;99.90;;;;;;5097897;27;20077;-66
2021/12/20 12:13:01;;;;;;;13.40;7.85;;;4.60;99.90;;;;;;5116332;28;20050;-65
2021/12/20 12:15:44;;;;;;;14.65;7.70;;;4.70;99.90;;;;;;5077595;28;20052;-66
2021/12/20 12:18:10;;;;;;;11.05;4.47;;;4.60;99.90;;;;;;5107142;28;20095;-66
2021/12/20 12:20:52;;;;;;;15.90;4.70;;;4.60;99.90;;;;;;5074637;28;20052;-65
2021/12/20 12:23:25;;;;;;;13.13;3.60;;;4.60;99.90;;;;;;5120195;27;20067;-66
2021/12/20 12:26:00;;;;;;;13.63;4.18;;;4.60;99.90;;;;;;5073521;28;20086;-66
2021/12/20 12:28:47;;;;;;;14.32;3.90;;;4.60;99.90;;;;;;5091155;28;20480;-66
2021/12/20 12:31:13;;;;;;;17.90;4.32;;;4.60;99.90;;;;;;5099045;28;20056;-66
2021/12/20 12:33:41;;;;;;;10.40;4.57;;;4.60;99.90;;;;;;5072494;28;20104;-66
2021/12/20 12:36:10;;;;;;;11.65;5.05;;;4.60;99.90;;;;;;5086349;27;20051;-67
2021/12/20 12:38:46;;;;;;;12.20;4.15;;;4.70;99.90;;;;;;5090710;28;20047;-66
2021/12/20 12:41:20;;;;;;;12.25;3.55;;;4.70;99.90;;;;;;5098958;28;20047;-66
2021/12/20 12:44:02;;;;;;;15.13;4.00;;;4.70;99.90;;;;;;5107089;27;20121;-66
2021/12/20 12:46:41;;;;;;;7.03;3.55;;;4.70;99.90;;;;;;5107925;27;20572;-66
2021/12/20 12:49:21;;;;;;;10.68;3.90;;;4.80;99.90;;;;;;5104524;27;20143;-64
2021/12/20 12:51:48;;;;;;;7.75;4.22;;;4.80;99.90;;;;;;5085233;28;20061;-64
2021/12/20 12:54:32;;;;;;;8.60;3.20;;;4.80;99.90;;;;;;5084934;28;20044;-64
2021/12/20 12:57:09;;;;;;;11.40;3.92;;;4.80;99.90;;;;;;5092786;28;20032;-64
2021/12/20 12:59:41;;;;;;;7.63;3.25;;;4.90;99.90;;;;;;5088842;28;20110;-64
2021/12/20 13:02:38;;;;;;;9.80;3.22;;;4.80;99.90;;;;;;5100821;27;20139;-64
2021/12/20 13:05:06;;;;;;;8.88;3.22;;;4.80;99.90;;;;;;5069081;28;20055;-64
2021/12/20 13:08:02;;;;;;;12.20;3.92;;;4.70;99.90;;;;;;5117321;27;20071;-64
2021/12/20 13:10:38;;;;;;;9.70;3.05;;;4.70;99.90;;;;;;5089369;28;20044;-64